createdAt,value
2018-12-06T00:00:50.498Z,6.03
2018-12-06T00:03:17.153Z,4.47
2018-12-06T00:05:44.362Z,5.53
2018-12-06T00:08:15.922Z,4.47
2018-12-06T00:10:42.799Z,5.70
2018-12-06T00:13:09.797Z,5.57
2018-12-06T00:15:36.554Z,3.97
2018-12-06T00:18:03.512Z,4.47
2018-12-06T00:20:30.444Z,4.07
2018-12-06T00:22:57.087Z,3.53
2018-12-06T00:25:23.838Z,5.07
2018-12-06T00:27:50.670Z,3.53
2018-12-06T00:30:29.482Z,5.70
2018-12-06T00:32:56.447Z,4.07
2018-12-06T00:35:23.095Z,5.07
2018-12-06T00:37:49.747Z,5.30
2018-12-06T00:40:16.463Z,5.60
2018-12-06T00:42:43.113Z,4.17
2018-12-06T00:45:09.791Z,4.40
2018-12-06T00:47:36.489Z,3.97
2018-12-06T00:50:04.101Z,4.37
2018-12-06T00:52:30.816Z,4.17
2018-12-06T00:54:57.676Z,7.17
2018-12-06T00:57:24.661Z,5.00
2018-12-06T00:59:51.215Z,3.13
2018-12-06T01:02:18.246Z,4.27
2018-12-06T01:04:44.922Z,5.03
2018-12-06T01:07:11.627Z,3.97
2018-12-06T01:09:38.426Z,4.47
2018-12-06T01:12:05.096Z,4.27
2018-12-06T01:14:39.402Z,2.97
2018-12-06T01:17:07.576Z,3.50
2018-12-06T01:19:34.147Z,4.50
2018-12-06T01:22:00.849Z,3.10
2018-12-06T01:24:27.524Z,3.13
2018-12-06T01:26:54.209Z,4.00
2018-12-06T01:29:21.131Z,4.60
2018-12-06T01:31:47.710Z,2.80
2018-12-06T01:34:14.368Z,3.17
2018-12-06T01:36:41.165Z,4.43
2018-12-06T01:39:07.807Z,4.80
2018-12-06T01:41:34.433Z,4.43
2018-12-06T01:44:01.532Z,5.40
2018-12-06T01:46:28.257Z,3.27
2018-12-06T01:48:54.797Z,4.57
2018-12-06T01:51:21.791Z,5.87
2018-12-06T01:53:48.375Z,4.90
2018-12-06T01:56:15.037Z,5.63
2018-12-06T01:58:42.008Z,4.47
2018-12-06T02:01:08.665Z,5.77
2018-12-06T02:03:35.334Z,6.07
2018-12-06T02:06:02.429Z,5.77
2018-12-06T02:08:29.173Z,8.20
2018-12-06T02:10:55.899Z,6.37
2018-12-06T02:13:25.335Z,4.03
2018-12-06T02:15:52.035Z,5.37
2018-12-06T02:18:18.708Z,5.30
2018-12-06T02:20:46.238Z,4.40
2018-12-06T02:23:12.944Z,4.27
2018-12-06T02:25:39.615Z,7.07
2018-12-06T02:28:06.545Z,4.60
2018-12-06T02:30:33.228Z,4.33
2018-12-06T02:32:59.815Z,5.27
2018-12-06T02:35:26.717Z,3.77
2018-12-06T02:37:53.286Z,5.60
2018-12-06T02:40:19.823Z,3.87
2018-12-06T02:42:46.495Z,4.37
2018-12-06T02:45:13.139Z,5.77
2018-12-06T02:47:40.114Z,5.27
2018-12-06T02:50:07.809Z,4.90
2018-12-06T02:52:34.552Z,5.17
2018-12-06T02:55:01.215Z,4.57
2018-12-06T02:57:28.013Z,3.27
2018-12-06T02:59:54.799Z,3.43
2018-12-06T03:02:21.576Z,4.23
2018-12-06T03:04:48.607Z,4.47
2018-12-06T03:07:15.239Z,4.43
2018-12-06T03:09:42.003Z,2.90
2018-12-06T03:12:08.973Z,6.07
2018-12-06T03:14:35.618Z,3.50
2018-12-06T03:17:02.417Z,2.67
2018-12-06T03:19:29.433Z,3.10
2018-12-06T03:21:56.129Z,3.83
2018-12-06T03:24:22.874Z,2.77
2018-12-06T03:26:49.767Z,2.73
2018-12-06T03:29:16.528Z,3.37
2018-12-06T03:31:43.328Z,2.70
2018-12-06T03:34:10.679Z,2.47
2018-12-06T03:36:37.393Z,2.43
2018-12-06T03:39:05.335Z,1.50
2018-12-06T03:41:32.274Z,2.30
2018-12-06T03:43:58.934Z,1.83
2018-12-06T03:46:25.666Z,2.10
2018-12-06T03:48:52.348Z,3.77
2018-12-06T03:51:19.002Z,2.47
2018-12-06T03:53:45.680Z,2.47
2018-12-06T03:56:12.434Z,2.20
2018-12-06T03:58:39.235Z,3.10
2018-12-06T04:01:05.809Z,1.60
2018-12-06T04:03:32.963Z,4.30
2018-12-06T04:05:59.520Z,1.70
2018-12-06T04:08:26.032Z,2.50
2018-12-06T04:10:52.699Z,2.00
2018-12-06T04:13:19.997Z,2.70
2018-12-06T04:15:46.600Z,1.60
2018-12-06T04:18:13.301Z,3.90
2018-12-06T04:20:39.944Z,2.33
2018-12-06T04:23:06.629Z,2.13
2018-12-06T04:25:33.224Z,2.47
2018-12-06T04:28:00.226Z,2.30
2018-12-06T04:30:26.766Z,2.47
2018-12-06T04:32:53.382Z,2.67
2018-12-06T04:35:20.059Z,2.90
2018-12-06T04:37:46.688Z,3.17
2018-12-06T04:40:13.398Z,2.20
2018-12-06T04:42:39.937Z,3.97
2018-12-06T04:45:08.590Z,4.07
2018-12-06T04:47:35.219Z,3.53
2018-12-06T04:50:01.900Z,3.53
2018-12-06T04:52:28.447Z,4.67
2018-12-06T04:54:55.361Z,4.50
2018-12-06T04:57:22.010Z,6.50
2018-12-06T04:59:48.649Z,4.87
2018-12-06T05:02:15.706Z,5.00
2018-12-06T05:04:43.376Z,4.73
2018-12-06T05:07:10.116Z,6.17
2018-12-06T05:09:37.187Z,4.73
2018-12-06T05:12:03.881Z,4.20
2018-12-06T05:14:30.587Z,5.97
2018-12-06T05:16:57.599Z,3.37
2018-12-06T05:19:24.279Z,5.43
2018-12-06T05:21:50.847Z,4.20
2018-12-06T05:24:17.687Z,3.33
2018-12-06T05:26:44.287Z,4.47
2018-12-06T05:29:10.981Z,5.30
2018-12-06T05:31:37.915Z,5.20
2018-12-06T05:34:04.602Z,4.30
2018-12-06T05:36:31.280Z,4.27
2018-12-06T05:38:58.064Z,3.50
2018-12-06T05:41:24.705Z,4.10
2018-12-06T05:43:51.351Z,3.50
2018-12-06T05:46:18.304Z,5.57
2018-12-06T05:48:44.897Z,4.90
2018-12-06T05:51:11.570Z,3.77
2018-12-06T05:53:38.535Z,3.17
2018-12-06T05:56:05.224Z,4.37
2018-12-06T05:58:31.934Z,3.67
2018-12-06T06:00:58.623Z,3.77
2018-12-06T06:03:25.181Z,4.90
2018-12-06T06:05:52.191Z,5.70
2018-12-06T06:08:19.253Z,4.83
2018-12-06T06:10:45.902Z,5.03
2018-12-06T06:13:12.488Z,6.83
2018-12-06T06:15:39.531Z,4.33
2018-12-06T06:18:06.298Z,3.63
2018-12-06T06:20:33.026Z,5.47
2018-12-06T06:23:00.038Z,4.43
2018-12-06T06:25:26.682Z,5.87
2018-12-06T06:27:53.238Z,5.30
2018-12-06T06:30:20.114Z,3.90
2018-12-06T06:32:46.754Z,6.90
2018-12-06T06:35:13.313Z,4.40
2018-12-06T06:37:40.172Z,4.90
2018-12-06T06:40:06.970Z,2.50
2018-12-06T06:42:33.649Z,7.80
2018-12-06T06:45:00.424Z,3.70
2018-12-06T06:47:28.550Z,4.77
2018-12-06T06:49:55.400Z,4.10
2018-12-06T06:52:23.187Z,3.93
2018-12-06T06:54:49.736Z,4.27
2018-12-06T06:57:16.274Z,3.97
2018-12-06T06:59:43.661Z,4.53
2018-12-06T07:02:10.315Z,5.20
2018-12-06T07:04:36.994Z,3.43
2018-12-06T07:07:04.212Z,5.83
2018-12-06T07:09:31.029Z,4.30
2018-12-06T07:11:57.718Z,4.30
2018-12-06T07:14:24.890Z,3.50
2018-12-06T07:16:51.561Z,5.17
2018-12-06T07:19:18.301Z,4.27
2018-12-06T07:21:45.226Z,3.43
2018-12-06T07:24:11.867Z,5.00
2018-12-06T07:26:38.622Z,4.53
2018-12-06T07:29:05.469Z,3.97
2018-12-06T07:31:32.222Z,4.77
2018-12-06T07:33:58.858Z,4.03
2018-12-06T07:36:25.787Z,3.87
2018-12-06T07:38:52.455Z,3.80
2018-12-06T07:41:19.310Z,5.07
2018-12-06T07:43:46.387Z,3.10
2018-12-06T07:46:13.042Z,4.43
2018-12-06T07:48:39.706Z,6.33
2018-12-06T07:51:06.601Z,5.10
2018-12-06T07:53:33.240Z,4.23
2018-12-06T07:55:59.835Z,5.03
2018-12-06T07:58:26.733Z,3.13
2018-12-06T08:00:53.305Z,5.17
2018-12-06T08:03:19.915Z,5.37
2018-12-06T08:05:46.836Z,3.13
2018-12-06T08:08:13.851Z,5.30
2018-12-06T08:10:40.497Z,3.47
2018-12-06T08:13:07.371Z,5.67
2018-12-06T08:15:34.150Z,4.37
2018-12-06T08:18:00.778Z,4.10
2018-12-06T08:20:27.715Z,6.53
2018-12-06T08:22:54.371Z,7.73
2018-12-06T08:25:21.018Z,6.47
2018-12-06T08:27:48.163Z,5.73
2018-12-06T08:30:14.804Z,3.97
2018-12-06T08:32:41.394Z,4.93
2018-12-06T08:35:08.200Z,5.57
2018-12-06T08:37:34.768Z,2.93
2018-12-06T08:40:01.734Z,6.50
2018-12-06T08:42:28.607Z,6.10
2018-12-06T08:44:55.246Z,4.97
2018-12-06T08:47:21.903Z,5.60
2018-12-06T08:49:48.777Z,4.50
2018-12-06T08:52:15.449Z,4.43
2018-12-06T08:54:42.260Z,3.93
2018-12-06T08:57:09.068Z,4.27
2018-12-06T08:59:35.632Z,4.57
2018-12-06T09:02:02.499Z,5.20
2018-12-06T09:04:29.358Z,4.03
2018-12-06T09:06:55.989Z,3.73
2018-12-06T09:09:22.622Z,5.97
2018-12-06T09:11:49.504Z,6.17
2018-12-06T09:14:16.154Z,4.90
2018-12-06T09:16:42.754Z,4.87
2018-12-06T09:19:09.568Z,4.10
2018-12-06T09:21:36.212Z,5.20
2018-12-06T09:24:03.163Z,4.57
2018-12-06T09:26:29.795Z,3.83
2018-12-06T09:28:56.448Z,3.67
2018-12-06T09:31:23.090Z,6.07
2018-12-06T09:34:01.638Z,4.00
2018-12-06T09:36:28.329Z,4.53
2018-12-06T09:38:55.070Z,7.00
2018-12-06T09:41:21.953Z,5.37
2018-12-06T09:43:48.587Z,5.17
2018-12-06T09:46:15.379Z,4.40
2018-12-06T09:48:42.334Z,5.93
2018-12-06T09:51:09.129Z,5.17
2018-12-06T09:53:35.692Z,5.37
2018-12-06T09:56:02.593Z,5.27
2018-12-06T09:58:29.276Z,3.77
2018-12-06T10:00:55.927Z,5.87
2018-12-06T10:03:22.701Z,4.17
2018-12-06T10:05:49.367Z,4.20
2018-12-06T10:08:16.191Z,5.63
2018-12-06T10:10:43.064Z,5.27
2018-12-06T10:13:09.705Z,5.90
2018-12-06T10:15:36.381Z,6.00
2018-12-06T10:18:03.183Z,7.47
2018-12-06T10:20:29.983Z,15.73
2018-12-06T10:22:56.650Z,12.63
2018-12-06T10:25:23.551Z,6.13
2018-12-06T10:27:50.217Z,6.80
2018-12-06T10:30:17.211Z,7.20
2018-12-06T10:32:44.236Z,4.83
2018-12-06T10:35:10.918Z,4.83
2018-12-06T10:37:37.577Z,3.93
2018-12-06T10:40:05.570Z,4.60
2018-12-06T10:42:32.266Z,6.63
2018-12-06T10:44:58.955Z,4.53
2018-12-06T10:47:25.740Z,6.77
2018-12-06T10:49:52.374Z,4.77
2018-12-06T10:52:19.011Z,5.13
2018-12-06T10:54:45.961Z,5.60
2018-12-06T10:57:12.594Z,3.77
2018-12-06T10:59:39.231Z,3.87
2018-12-06T11:02:13.210Z,4.00
2018-12-06T11:04:39.849Z,7.77
2018-12-06T11:07:06.603Z,5.67
2018-12-06T11:09:33.687Z,3.83
2018-12-06T11:12:00.782Z,5.40
2018-12-06T11:14:27.414Z,8.20
2018-12-06T11:16:54.366Z,4.80
2018-12-06T11:19:20.934Z,5.90
2018-12-06T11:21:47.589Z,5.90
2018-12-06T11:24:14.570Z,3.33
2018-12-06T11:26:41.138Z,5.27
2018-12-06T11:29:07.776Z,6.17
2018-12-06T11:31:34.721Z,7.07
2018-12-06T11:34:01.367Z,5.63
2018-12-06T11:36:28.038Z,8.13
2018-12-06T11:38:54.717Z,7.13
2018-12-06T11:41:21.376Z,6.07
2018-12-06T11:43:48.019Z,5.90
2018-12-06T11:46:14.836Z,4.67
2018-12-06T11:48:41.475Z,7.43
2018-12-06T11:51:08.113Z,7.17
2018-12-06T11:53:35.523Z,6.27
2018-12-06T11:56:02.171Z,6.80
2018-12-06T11:58:30.384Z,8.03
2018-12-06T12:00:57.311Z,6.53
2018-12-06T12:03:23.848Z,6.90
2018-12-06T12:05:50.434Z,5.63
2018-12-06T12:08:17.361Z,6.30
2018-12-06T12:10:44.100Z,6.73
2018-12-06T12:13:11.147Z,5.57
2018-12-06T12:15:38.700Z,5.50
2018-12-06T12:18:05.591Z,8.10
2018-12-06T12:20:32.293Z,7.10
2018-12-06T12:22:59.353Z,8.50
2018-12-06T12:25:25.983Z,7.33
2018-12-06T12:27:52.608Z,5.90
2018-12-06T12:30:19.607Z,5.90
2018-12-06T12:32:46.239Z,5.33
2018-12-06T12:35:12.979Z,6.60
2018-12-06T12:37:39.823Z,9.17
2018-12-06T12:40:08.333Z,5.80
2018-12-06T12:42:34.956Z,6.00
2018-12-06T12:45:02.032Z,7.00
2018-12-06T12:47:28.811Z,7.80
2018-12-06T12:49:55.527Z,5.70
2018-12-06T12:52:23.528Z,4.93
2018-12-06T12:54:50.135Z,8.80
2018-12-06T12:57:16.873Z,7.30
2018-12-06T12:59:43.731Z,6.40
2018-12-06T13:02:10.409Z,7.23
2018-12-06T13:04:36.999Z,7.40
2018-12-06T13:07:07.668Z,5.87
2018-12-06T13:09:34.229Z,6.53
2018-12-06T13:12:00.899Z,5.23
2018-12-06T13:14:27.971Z,6.57
2018-12-06T13:16:54.503Z,6.97
2018-12-06T13:19:21.062Z,6.63
2018-12-06T13:21:48.043Z,5.67
2018-12-06T13:24:14.778Z,7.30
2018-12-06T13:26:41.370Z,6.93
2018-12-06T13:29:08.103Z,6.87
2018-12-06T13:31:34.746Z,7.23
2018-12-06T13:34:07.192Z,6.50
2018-12-06T13:36:34.035Z,6.43
2018-12-06T13:39:07.846Z,9.73
2018-12-06T13:41:46.500Z,8.13
2018-12-06T13:44:14.548Z,6.13
2018-12-06T13:46:41.342Z,7.73
2018-12-06T13:49:08.199Z,8.17
2018-12-06T13:51:34.756Z,8.00
2018-12-06T13:54:26.773Z,7.83
2018-12-06T13:56:48.391Z,10.13
2018-12-06T13:59:15.060Z,7.07
2018-12-06T14:01:41.955Z,8.33
2018-12-06T14:04:08.672Z,10.10
2018-12-06T14:06:35.629Z,9.53
2018-12-06T14:09:04.459Z,6.43
2018-12-06T14:11:31.124Z,10.13
2018-12-06T14:13:57.840Z,7.23
2018-12-06T14:16:24.705Z,7.77
2018-12-06T14:18:51.339Z,8.00
2018-12-06T14:21:17.974Z,9.00
2018-12-06T14:23:45.004Z,12.47
2018-12-06T14:26:16.224Z,8.40
2018-12-06T14:28:42.862Z,9.30
2018-12-06T14:31:09.599Z,8.17
2018-12-06T14:33:43.145Z,10.27
2018-12-06T14:36:10.091Z,7.80
2018-12-06T14:38:36.790Z,11.47
2018-12-06T14:41:03.453Z,9.37
2018-12-06T14:43:30.422Z,8.57
2018-12-06T14:45:57.163Z,9.37
2018-12-06T14:48:24.027Z,8.60
2018-12-06T14:50:51.030Z,9.83
2018-12-06T14:53:17.714Z,9.43
2018-12-06T14:55:44.368Z,9.77
2018-12-06T14:58:11.189Z,8.87
2018-12-06T15:00:38.109Z,8.20
2018-12-06T15:03:04.794Z,8.93
2018-12-06T15:05:31.874Z,8.13
2018-12-06T15:07:58.799Z,9.97
2018-12-06T15:10:25.518Z,10.37
2018-12-06T15:12:53.091Z,8.20
2018-12-06T15:15:20.100Z,10.47
2018-12-06T15:17:49.446Z,10.33
2018-12-06T15:20:17.631Z,10.57
2018-12-06T15:22:44.373Z,10.40
2018-12-06T15:25:11.688Z,11.47
2018-12-06T15:27:38.830Z,10.97
2018-12-06T15:30:06.395Z,9.93
2018-12-06T15:32:33.058Z,10.97
2018-12-06T15:34:59.686Z,9.13
2018-12-06T15:37:26.427Z,9.47
2018-12-06T15:39:53.886Z,9.53
2018-12-06T15:42:20.830Z,11.20
2018-12-06T15:44:48.283Z,10.57
2018-12-06T15:47:14.973Z,11.00
2018-12-06T15:49:41.837Z,12.60
2018-12-06T15:52:08.518Z,10.57
2018-12-06T15:54:35.117Z,11.50
2018-12-06T15:57:01.951Z,10.53
2018-12-06T15:59:28.618Z,12.27
2018-12-06T16:01:55.302Z,13.10
2018-12-06T16:04:22.669Z,12.10
2018-12-06T16:06:49.342Z,12.03
2018-12-06T16:09:16.015Z,10.87
2018-12-06T16:11:43.019Z,13.63
2018-12-06T16:14:09.859Z,12.10
2018-12-06T16:16:36.510Z,13.13
2018-12-06T16:19:03.517Z,11.80
2018-12-06T16:21:30.284Z,11.83
2018-12-06T16:23:57.185Z,12.17
2018-12-06T16:26:24.200Z,10.60
2018-12-06T16:28:50.788Z,11.37
2018-12-06T16:31:17.679Z,13.07
2018-12-06T16:33:44.643Z,9.97
2018-12-06T16:36:35.159Z,12.10
2018-12-06T16:39:01.967Z,9.47
2018-12-06T16:41:28.638Z,10.37
2018-12-06T16:43:55.995Z,11.37
2018-12-06T16:46:22.732Z,13.27
2018-12-06T16:48:49.534Z,10.67
2018-12-06T16:51:16.315Z,14.90
2018-12-06T16:53:43.199Z,11.80
2018-12-06T16:56:09.823Z,12.13
2018-12-06T16:58:36.431Z,9.77
2018-12-06T17:01:03.383Z,11.43
2018-12-06T17:03:30.030Z,13.43
2018-12-06T17:05:56.693Z,11.20
2018-12-06T17:08:23.567Z,11.47
2018-12-06T17:10:50.377Z,10.80
2018-12-06T17:13:17.027Z,9.73
2018-12-06T17:15:43.811Z,11.63
2018-12-06T17:18:10.528Z,10.10
2018-12-06T17:20:37.215Z,10.10
2018-12-06T17:23:04.139Z,12.93
2018-12-06T17:25:30.792Z,11.53
2018-12-06T17:27:57.423Z,10.20
2018-12-06T17:30:24.532Z,10.60
2018-12-06T17:32:51.347Z,10.03
2018-12-06T17:35:18.298Z,10.50
2018-12-06T17:40:11.628Z,10.43
2018-12-06T17:42:38.399Z,10.67
2018-12-06T17:47:32.843Z,15.53
2018-12-06T17:49:59.769Z,12.93
2018-12-06T17:54:52.996Z,10.97
2018-12-06T17:57:19.786Z,9.60
2018-12-06T17:59:46.778Z,10.80
2018-12-06T18:02:13.717Z,12.20
2018-12-06T18:04:40.392Z,11.83
2018-12-06T18:07:07.219Z,10.37
2018-12-06T18:09:34.896Z,11.03
2018-12-06T18:12:01.780Z,10.03
2018-12-06T18:16:56.525Z,11.70
2018-12-06T18:19:23.174Z,11.63
2018-12-06T18:26:52.743Z,10.60
2018-12-06T18:29:20.103Z,11.37
2018-12-06T18:31:48.248Z,10.27
2018-12-06T18:34:14.863Z,11.50
2018-12-06T18:36:41.520Z,9.60
2018-12-06T18:39:08.502Z,11.07
2018-12-06T18:41:35.327Z,9.90
2018-12-06T18:44:01.996Z,11.07
2018-12-06T18:46:28.853Z,9.50
2018-12-06T18:48:55.436Z,9.77
2018-12-06T18:51:22.126Z,10.23
2018-12-06T18:56:15.908Z,11.80
2018-12-06T18:58:42.573Z,11.67
2018-12-06T19:01:09.449Z,11.07
2018-12-06T19:03:36.065Z,9.17
2018-12-06T19:06:02.862Z,10.07
2018-12-06T19:10:56.186Z,11.30
2018-12-06T19:13:23.190Z,12.57
2018-12-06T19:18:16.544Z,10.77
2018-12-06T19:20:43.170Z,11.83
2018-12-06T19:25:36.149Z,10.70
2018-12-06T19:28:02.864Z,10.87
2018-12-06T19:30:30.147Z,10.60
2018-12-06T19:32:58.002Z,12.47
2018-12-06T19:35:26.209Z,11.50
2018-12-06T19:37:53.167Z,12.30
2018-12-06T19:40:20.634Z,10.77
2018-12-06T19:42:47.210Z,10.67
2018-12-06T19:45:14.471Z,11.63
2018-12-06T19:47:41.163Z,13.97
2018-12-06T19:50:08.550Z,11.20
2018-12-06T19:55:01.489Z,10.17
2018-12-06T19:57:28.245Z,12.77
2018-12-06T20:02:21.439Z,12.40
2018-12-06T20:04:48.159Z,11.07
2018-12-06T20:07:14.984Z,11.80
2018-12-06T20:09:41.727Z,12.50
2018-12-06T20:12:08.496Z,11.37
2018-12-06T20:14:35.364Z,13.40
2018-12-06T20:17:02.077Z,11.47
2018-12-06T20:19:28.773Z,12.17
2018-12-06T20:21:55.780Z,13.97
2018-12-06T20:24:22.460Z,11.87
2018-12-06T20:26:49.130Z,10.20
2018-12-06T20:29:16.027Z,12.60
2018-12-06T20:31:42.720Z,12.90
2018-12-06T20:36:44.846Z,13.73
2018-12-06T20:39:11.887Z,13.63
2018-12-06T20:44:04.998Z,13.33
2018-12-06T20:46:31.654Z,13.47
2018-12-06T20:48:58.587Z,12.17
2018-12-06T20:51:26.591Z,12.90
2018-12-06T20:53:53.241Z,12.77
2018-12-06T20:56:20.411Z,13.30
2018-12-06T20:58:47.214Z,11.50
2018-12-06T21:01:14.124Z,11.97
2018-12-06T21:03:42.492Z,13.27
2018-12-06T21:06:09.154Z,12.67
2018-12-06T21:08:35.929Z,12.00
2018-12-06T21:13:28.886Z,13.00
2018-12-06T21:15:55.725Z,13.17
2018-12-06T21:20:49.234Z,13.50
2018-12-06T21:23:15.805Z,10.17
2018-12-06T21:25:42.548Z,12.47
2018-12-06T21:28:09.271Z,13.50
2018-12-06T21:30:35.935Z,12.07
2018-12-06T21:35:28.791Z,14.37
2018-12-06T21:37:55.374Z,11.27
2018-12-06T21:40:22.144Z,14.07
2018-12-06T21:42:48.705Z,13.60
2018-12-06T21:45:15.367Z,11.50
2018-12-06T21:47:42.422Z,12.97
2018-12-06T21:50:09.303Z,14.00
2018-12-06T21:52:35.972Z,14.17
2018-12-06T21:57:30.177Z,12.73
2018-12-06T21:59:56.757Z,12.97
2018-12-06T22:04:50.661Z,14.83
2018-12-06T22:07:17.383Z,11.90
2018-12-06T22:12:10.554Z,14.43
2018-12-06T22:14:37.308Z,13.03
2018-12-06T22:19:30.574Z,13.83
2018-12-06T22:21:57.408Z,13.57
2018-12-06T22:26:50.495Z,12.90
2018-12-06T22:29:17.187Z,12.17
2018-12-06T22:31:44.020Z,13.23
2018-12-06T22:34:10.706Z,14.80
2018-12-06T22:36:37.415Z,14.20
2018-12-06T22:41:34.080Z,13.03
2018-12-06T22:44:00.839Z,12.90
2018-12-06T22:48:54.229Z,12.90
2018-12-06T22:51:24.212Z,11.17
2018-12-06T22:56:16.108Z,15.03
2018-12-06T22:58:42.670Z,13.87
2018-12-06T23:01:10.359Z,13.07
2018-12-06T23:03:36.934Z,14.03
2018-12-06T23:06:04.072Z,13.57
2018-12-06T23:08:31.183Z,11.17
2018-12-06T23:10:57.904Z,12.93
2018-12-06T23:13:24.571Z,13.30
2018-12-06T23:18:17.534Z,12.00
2018-12-06T23:20:44.192Z,13.07
2018-12-06T23:25:37.348Z,12.83
2018-12-06T23:28:04.163Z,10.77
2018-12-06T23:32:57.290Z,7.27
2018-12-06T23:35:24.131Z,4.70
2018-12-06T23:37:51.072Z,7.03
2018-12-06T23:40:17.764Z,4.50
2018-12-06T23:42:44.692Z,4.03
2018-12-06T23:47:37.872Z,3.63
2018-12-06T23:50:04.929Z,3.90
2018-12-06T23:52:31.977Z,3.37
2018-12-06T23:54:58.791Z,4.10
2018-12-06T23:57:25.677Z,3.10
2018-12-06T23:59:52.197Z,3.00
